createdAt,value
2023-04-30T00:00:56.785Z,100060.58
2023-04-30T00:03:31.238Z,100061.65
2023-04-30T00:05:57.873Z,100059.69
2023-04-30T00:08:24.190Z,100062.58
2023-04-30T00:10:51.113Z,100060.91
2023-04-30T00:13:18.231Z,100057.22
2023-04-30T00:15:44.623Z,100056.13
2023-04-30T00:18:11.255Z,100056.52
2023-04-30T00:24:32.769Z,100058.76
2023-04-30T00:26:59.309Z,100057.23
2023-04-30T00:29:25.863Z,100060.69
2023-04-30T00:31:52.271Z,100061.74
2023-04-30T00:34:18.705Z,100063.23
2023-04-30T00:36:44.989Z,100062.55
2023-04-30T00:39:11.326Z,100064.19
2023-04-30T00:41:39.530Z,100066.02
2023-04-30T00:44:05.937Z,100066.92
2023-04-30T00:46:32.483Z,100068.35
2023-04-30T00:49:01.644Z,100070.36
2023-04-30T00:51:28.774Z,100071.50
2023-04-30T00:53:55.720Z,100073.45
2023-04-30T00:56:22.531Z,100076.52
2023-04-30T00:58:50.730Z,100072.55
2023-04-30T01:01:17.439Z,100068.88
2023-04-30T01:03:44.113Z,100071.81
2023-04-30T01:06:10.449Z,100071.00
2023-04-30T01:08:36.822Z,100068.23
2023-04-30T01:11:22.912Z,100069.20
2023-04-30T01:14:07.913Z,100071.58
2023-04-30T01:16:49.288Z,100073.10
2023-04-30T01:19:44.517Z,100074.66
2023-04-30T01:22:36.532Z,100074.48
2023-04-30T01:25:25.976Z,100072.23
2023-04-30T01:28:09.113Z,100072.90
2023-04-30T01:30:36.873Z,100076.23
2023-04-30T01:33:03.406Z,100071.00
2023-04-30T01:36:08.198Z,100073.98
2023-04-30T01:39:03.447Z,100074.16
2023-04-30T01:41:56.695Z,100080.78
2023-04-30T01:44:37.060Z,100083.45
2023-04-30T01:47:09.063Z,100083.52
2023-04-30T01:49:41.386Z,100083.63
2023-04-30T01:52:40.482Z,100083.02
2023-04-30T01:56:05.088Z,100089.23
2023-04-30T01:58:31.985Z,100088.16
2023-04-30T02:00:58.293Z,100087.46
2023-04-30T02:03:24.814Z,100089.98
2023-04-30T02:05:52.569Z,100093.11
2023-04-30T02:08:18.926Z,100093.81
2023-04-30T02:10:45.265Z,100092.20
2023-04-30T02:13:11.663Z,100089.42
2023-04-30T02:15:38.045Z,100090.64
2023-04-30T02:18:04.397Z,100091.67
2023-04-30T02:20:30.730Z,100096.09
2023-04-30T02:23:00.684Z,100092.56
2023-04-30T02:25:27.185Z,100096.73
2023-04-30T02:27:53.584Z,100097.45
2023-04-30T02:30:20.370Z,100098.39
2023-04-30T02:32:47.382Z,100100.91
2023-04-30T02:35:13.740Z,100102.35
2023-04-30T02:37:40.386Z,100102.66
2023-04-30T02:40:07.397Z,100105.60
2023-04-30T02:42:33.787Z,100107.24
2023-04-30T02:45:00.463Z,100105.80
2023-04-30T02:47:27.015Z,100114.77
2023-04-30T02:50:23.055Z,100118.20
2023-04-30T02:52:49.336Z,100119.09
2023-04-30T02:55:16.216Z,100119.98
2023-04-30T02:57:42.542Z,100125.77
2023-04-30T03:00:09.315Z,100130.73
2023-04-30T03:02:35.886Z,100133.11
2023-04-30T03:05:03.446Z,100135.23
2023-04-30T03:07:30.199Z,100142.27
2023-04-30T03:09:56.587Z,100146.09
2023-04-30T03:12:23.146Z,100147.61
2023-04-30T03:14:49.641Z,100149.38
2023-04-30T03:17:16.002Z,100153.17
2023-04-30T03:19:42.468Z,100157.65
2023-04-30T03:23:11.976Z,100161.19
2023-04-30T03:25:38.353Z,100165.29
2023-04-30T03:28:04.664Z,100167.90
2023-04-30T03:30:31.085Z,100172.27
2023-04-30T03:32:57.554Z,100176.70
2023-04-30T03:39:37.272Z,100182.80
2023-04-30T03:42:03.672Z,100187.14
2023-04-30T03:44:30.040Z,100188.00
2023-04-30T03:46:56.510Z,100195.32
2023-04-30T03:49:22.850Z,100205.05
2023-04-30T03:51:49.155Z,100207.46
2023-04-30T03:54:15.440Z,100214.64
2023-04-30T03:56:41.694Z,100216.23
2023-04-30T03:59:08.175Z,100216.08
2023-04-30T04:01:34.842Z,100222.57
2023-04-30T04:04:01.507Z,100224.12
2023-04-30T04:06:28.079Z,100231.04
2023-04-30T04:08:54.536Z,100233.80
2023-04-30T04:11:20.978Z,100232.66
2023-04-30T04:13:47.452Z,100243.29
2023-04-30T04:16:13.921Z,100241.71
2023-04-30T04:18:40.223Z,100245.65
2023-04-30T04:21:07.304Z,100251.23
2023-04-30T04:23:33.639Z,100251.17
2023-04-30T04:25:59.931Z,100254.68
2023-04-30T04:28:26.605Z,100262.19
2023-04-30T04:30:53.174Z,100267.13
2023-04-30T04:33:19.438Z,100272.66
2023-04-30T04:35:45.840Z,100278.58
2023-04-30T04:38:12.587Z,100281.59
2023-04-30T04:40:39.468Z,100289.33
2023-04-30T04:43:05.995Z,100294.02
2023-04-30T04:45:32.998Z,100300.68
2023-04-30T04:47:59.592Z,100305.06
2023-04-30T04:50:25.957Z,100308.90
2023-04-30T04:52:52.359Z,100312.39
2023-04-30T04:55:18.646Z,100315.77
2023-04-30T04:57:45.170Z,100318.45
2023-04-30T05:00:12.562Z,100322.96
2023-04-30T05:02:38.947Z,100331.00
2023-04-30T05:05:10.597Z,100331.48
2023-04-30T05:07:36.876Z,100336.75
2023-04-30T05:10:03.451Z,100337.73
2023-04-30T05:12:29.831Z,100340.45
2023-04-30T05:14:56.218Z,100345.61
2023-04-30T05:17:22.695Z,100347.69
2023-04-30T05:19:50.072Z,100358.67
2023-04-30T05:22:16.870Z,100356.75
2023-04-30T05:24:43.368Z,100362.23
2023-04-30T05:27:09.754Z,100366.96
2023-04-30T05:29:36.498Z,100369.91
2023-04-30T05:32:03.090Z,100377.89
2023-04-30T05:34:29.621Z,100374.13
2023-04-30T05:36:55.998Z,100378.60
2023-04-30T05:39:24.001Z,100382.55
2023-04-30T05:41:51.627Z,100386.97
2023-04-30T05:44:19.510Z,100391.62
2023-04-30T05:46:45.931Z,100389.08
2023-04-30T05:49:12.558Z,100395.23
2023-04-30T05:51:39.025Z,100397.49
2023-04-30T05:54:05.513Z,100397.27
2023-04-30T05:56:31.889Z,100397.34
2023-04-30T05:58:58.342Z,100398.79
2023-04-30T06:01:24.879Z,100400.91
2023-04-30T06:03:51.717Z,100402.49
2023-04-30T06:06:18.064Z,100405.18
2023-04-30T06:08:44.889Z,100413.94
2023-04-30T06:11:14.831Z,100418.08
2023-04-30T06:13:41.190Z,100417.63
2023-04-30T06:16:07.811Z,100426.18
2023-04-30T06:18:34.162Z,100427.31
2023-04-30T06:21:00.511Z,100431.86
2023-04-30T06:23:52.387Z,100437.38
2023-04-30T06:26:19.497Z,100436.60
2023-04-30T06:28:46.463Z,100441.09
2023-04-30T06:31:13.724Z,100439.64
2023-04-30T06:33:40.088Z,100444.27
2023-04-30T06:36:06.506Z,100443.83
2023-04-30T06:38:32.943Z,100443.38
2023-04-30T06:40:59.351Z,100444.56
2023-04-30T06:43:25.803Z,100446.65
2023-04-30T06:46:17.185Z,100451.32
2023-04-30T06:48:43.533Z,100446.52
2023-04-30T06:51:10.908Z,100445.87
2023-04-30T06:53:37.635Z,100446.52
2023-04-30T06:56:04.184Z,100449.46
2023-04-30T06:58:30.472Z,100448.11
2023-04-30T07:00:57.589Z,100453.00
2023-04-30T07:03:23.982Z,100448.02
2023-04-30T07:05:51.087Z,100452.27
2023-04-30T07:08:17.478Z,100456.56
2023-04-30T07:10:43.749Z,100458.38
2023-04-30T07:13:10.088Z,100461.21
2023-04-30T07:15:37.455Z,100462.05
2023-04-30T07:18:03.727Z,100466.44
2023-04-30T07:20:30.133Z,100463.69
2023-04-30T07:22:56.386Z,100464.14
2023-04-30T07:25:22.715Z,100473.20
2023-04-30T07:27:52.261Z,100473.58
2023-04-30T07:30:18.600Z,100479.67
2023-04-30T07:32:44.883Z,100484.09
2023-04-30T07:35:11.262Z,100489.00
2023-04-30T07:37:39.786Z,100488.26
2023-04-30T07:40:15.058Z,100496.02
2023-04-30T07:42:44.528Z,100487.31
2023-04-30T07:45:12.712Z,100485.84
2023-04-30T07:47:39.109Z,100490.25
2023-04-30T07:50:05.964Z,100492.55
2023-04-30T07:52:32.319Z,100497.49
2023-04-30T07:54:58.635Z,100500.52
2023-04-30T07:57:28.134Z,100500.48
2023-04-30T07:59:55.364Z,100501.45
2023-04-30T08:02:22.009Z,100503.80
2023-04-30T08:04:48.795Z,100498.55
2023-04-30T08:07:15.397Z,100504.23
2023-04-30T08:09:41.793Z,100507.02
2023-04-30T08:12:09.656Z,100510.64
2023-04-30T08:14:35.914Z,100513.58
2023-04-30T08:17:02.659Z,100510.91
2023-04-30T08:19:29.107Z,100516.27
2023-04-30T08:21:55.625Z,100515.29
2023-04-30T08:24:21.914Z,100513.72
2023-04-30T08:26:48.640Z,100512.21
2023-04-30T08:29:14.931Z,100516.35
2023-04-30T08:31:41.872Z,100520.62
2023-04-30T08:34:08.185Z,100528.23
2023-04-30T08:36:34.457Z,100532.15
2023-04-30T08:39:01.458Z,100535.75
2023-04-30T08:41:32.321Z,100533.55
2023-04-30T08:44:01.020Z,100532.00
2023-04-30T08:46:31.449Z,100540.23
2023-04-30T08:48:58.064Z,100548.77
2023-04-30T08:51:30.650Z,100547.15
2023-04-30T08:53:57.252Z,100548.83
2023-04-30T08:56:27.468Z,100551.99
2023-04-30T08:58:53.811Z,100556.80
2023-04-30T09:01:20.624Z,100556.63
2023-04-30T09:03:47.049Z,100559.23
2023-04-30T09:06:16.953Z,100565.15
2023-04-30T09:08:48.863Z,100572.13
2023-04-30T09:11:27.337Z,100570.91
2023-04-30T09:13:59.151Z,100571.14
2023-04-30T09:16:27.349Z,100580.79
2023-04-30T09:18:54.071Z,100575.35
2023-04-30T09:21:34.902Z,100578.54
2023-04-30T09:24:05.319Z,100578.11
2023-04-30T09:26:37.534Z,100580.04
2023-04-30T09:29:08.224Z,100582.52
2023-04-30T09:31:36.149Z,100581.34
2023-04-30T09:34:03.684Z,100588.43
2023-04-30T09:36:31.307Z,100584.27
2023-04-30T09:39:16.824Z,100592.66
2023-04-30T09:41:43.778Z,100589.55
2023-04-30T09:44:27.918Z,100591.16
2023-04-30T09:46:55.637Z,100595.66
2023-04-30T09:49:22.015Z,100595.77
2023-04-30T09:51:53.957Z,100591.85
2023-04-30T09:54:22.882Z,100594.17
2023-04-30T09:56:52.951Z,100589.27
2023-04-30T09:59:22.297Z,100587.55
2023-04-30T10:01:51.797Z,100587.35
2023-04-30T10:04:20.202Z,100583.30
2023-04-30T10:06:47.509Z,100591.20
2023-04-30T10:09:15.383Z,100592.06
2023-04-30T10:11:44.048Z,100589.88
2023-04-30T10:14:12.285Z,100591.35
2023-04-30T10:17:07.079Z,100597.02
2023-04-30T10:20:05.959Z,100607.97
2023-04-30T10:22:34.354Z,100597.77
2023-04-30T10:25:01.649Z,100595.42
2023-04-30T10:27:32.611Z,100588.27
2023-04-30T10:29:59.411Z,100591.98
2023-04-30T10:32:36.252Z,100592.64
2023-04-30T10:35:20.127Z,100596.61
2023-04-30T10:37:49.879Z,100604.27
2023-04-30T10:40:18.487Z,100600.79
2023-04-30T10:42:47.074Z,100604.25
2023-04-30T10:45:38.826Z,100591.61
2023-04-30T10:48:06.353Z,100591.45
2023-04-30T10:50:38.888Z,100590.83
2023-04-30T10:53:06.509Z,100594.77
2023-04-30T10:55:33.103Z,100599.73
2023-04-30T10:57:59.487Z,100600.16
2023-04-30T11:00:28.326Z,100592.83
2023-04-30T11:03:03.347Z,100599.88
2023-04-30T11:05:36.782Z,100596.26
2023-04-30T11:08:03.277Z,100605.11
2023-04-30T11:10:34.091Z,100601.29
2023-04-30T11:13:09.500Z,100605.98
2023-04-30T11:15:41.496Z,100610.88
2023-04-30T11:18:08.897Z,100610.58
2023-04-30T11:20:41.321Z,100606.72
2023-04-30T11:23:24.962Z,100612.05
2023-04-30T11:25:54.656Z,100610.33
2023-04-30T11:28:24.114Z,100612.59
2023-04-30T11:30:58.358Z,100611.17
2023-04-30T11:33:26.328Z,100614.08
2023-04-30T11:35:55.168Z,100622.13
2023-04-30T11:38:26.732Z,100617.65
2023-04-30T11:40:56.316Z,100614.15
2023-04-30T11:43:28.486Z,100615.38
2023-04-30T11:46:07.585Z,100617.95
2023-04-30T11:48:36.097Z,100623.14
2023-04-30T11:51:24.394Z,100626.48
2023-04-30T11:53:52.122Z,100630.34
2023-04-30T11:56:21.005Z,100624.36
2023-04-30T11:58:48.669Z,100628.83
2023-04-30T12:01:15.851Z,100634.45
2023-04-30T12:03:49.790Z,100636.40
2023-04-30T12:06:25.019Z,100631.45
2023-04-30T12:09:11.096Z,100635.36
2023-04-30T12:11:38.152Z,100632.24
2023-04-30T12:14:10.327Z,100633.56
2023-04-30T12:16:45.280Z,100634.61
2023-04-30T12:19:12.300Z,100637.70
2023-04-30T12:21:40.646Z,100633.75
2023-04-30T12:24:07.826Z,100634.19
2023-04-30T12:26:39.373Z,100638.60
2023-04-30T12:29:10.247Z,100640.63
2023-04-30T12:31:38.092Z,100635.65
2023-04-30T12:34:09.554Z,100632.41
2023-04-30T12:36:41.764Z,100641.95
2023-04-30T12:39:09.967Z,100631.41
2023-04-30T12:41:41.612Z,100623.64
2023-04-30T12:44:26.814Z,100625.73
2023-04-30T12:47:00.249Z,100629.96
2023-04-30T12:53:44.992Z,100621.23
2023-04-30T12:56:16.950Z,100621.27
2023-04-30T12:58:46.591Z,100618.92
2023-04-30T13:01:15.386Z,100622.27
2023-04-30T13:03:42.361Z,100620.76
2023-04-30T13:06:09.751Z,100627.21
2023-04-30T13:08:45.800Z,100622.64
2023-04-30T13:11:16.584Z,100612.33
2023-04-30T13:13:42.958Z,100611.25
2023-04-30T13:16:09.362Z,100617.45
2023-04-30T13:18:36.668Z,100617.29
2023-04-30T13:21:03.420Z,100611.58
2023-04-30T13:23:31.952Z,100610.58
2023-04-30T13:26:00.510Z,100606.77
2023-04-30T13:28:26.779Z,100608.83
2023-04-30T13:30:53.163Z,100615.68
2023-04-30T13:33:20.273Z,100612.55
2023-04-30T13:35:47.245Z,100618.52
2023-04-30T13:38:13.542Z,100616.85
2023-04-30T13:40:40.518Z,100617.84
2023-04-30T13:43:07.327Z,100619.89
2023-04-30T13:45:33.693Z,100612.38
2023-04-30T13:48:00.236Z,100617.84
2023-04-30T13:50:26.706Z,100619.88
2023-04-30T13:52:53.244Z,100615.64
2023-04-30T13:55:19.570Z,100618.09
2023-04-30T13:57:46.163Z,100616.61
2023-04-30T14:00:13.354Z,100613.04
2023-04-30T14:02:39.898Z,100612.33
2023-04-30T14:06:22.262Z,100612.55
2023-04-30T14:08:48.735Z,100611.25
2023-04-30T14:11:16.383Z,100614.20
2023-04-30T14:13:43.421Z,100618.11
2023-04-30T14:16:09.861Z,100618.94
2023-04-30T14:18:36.567Z,100612.80
2023-04-30T14:21:03.005Z,100614.90
2023-04-30T14:23:38.635Z,100615.55
2023-04-30T14:29:06.065Z,100617.25
2023-04-30T14:33:19.891Z,100620.27
2023-04-30T14:35:47.804Z,100623.77
2023-04-30T14:39:17.991Z,100626.40
2023-04-30T14:41:45.780Z,100628.44
2023-04-30T14:44:13.461Z,100621.45
2023-04-30T14:46:41.359Z,100625.80
2023-04-30T14:49:09.116Z,100628.93
2023-04-30T14:51:36.829Z,100631.90
2023-04-30T14:54:04.553Z,100628.73
2023-04-30T14:56:32.616Z,100636.80
2023-04-30T14:59:00.411Z,100635.55
2023-04-30T15:01:30.411Z,100636.48
2023-04-30T15:03:58.989Z,100637.14
2023-04-30T15:06:27.037Z,100640.73
2023-04-30T15:09:42.621Z,100649.39
2023-04-30T15:12:42.610Z,100650.38
2023-04-30T15:15:10.751Z,100651.80
2023-04-30T15:17:38.776Z,100659.02
2023-04-30T15:20:07.679Z,100657.13
2023-04-30T15:22:35.502Z,100653.42
2023-04-30T15:26:01.109Z,100655.88
2023-04-30T15:28:29.031Z,100660.86
2023-04-30T15:30:57.071Z,100660.38
2023-04-30T15:33:29.062Z,100659.91
2023-04-30T15:35:57.405Z,100664.21
2023-04-30T15:38:25.108Z,100659.46
2023-04-30T15:40:53.006Z,100658.49
2023-04-30T15:43:21.551Z,100658.95
2023-04-30T15:45:50.704Z,100662.96
2023-04-30T15:48:18.486Z,100663.15
2023-04-30T15:50:52.549Z,100665.48
2023-04-30T15:53:20.204Z,100670.88
2023-04-30T15:55:49.161Z,100674.10
2023-04-30T15:58:17.040Z,100671.73
2023-04-30T16:00:45.005Z,100667.83
2023-04-30T16:03:12.905Z,100668.23
2023-04-30T16:05:42.552Z,100662.60
2023-04-30T16:08:15.257Z,100662.61
2023-04-30T16:10:43.355Z,100663.94
2023-04-30T16:13:10.996Z,100663.01
2023-04-30T16:15:38.639Z,100655.91
2023-04-30T16:18:06.822Z,100646.75
2023-04-30T16:20:34.919Z,100643.27
2023-04-30T16:23:04.861Z,100635.77
2023-04-30T16:25:32.706Z,100631.47
2023-04-30T16:28:00.473Z,100620.17
2023-04-30T16:30:28.566Z,100622.36
2023-04-30T16:32:57.023Z,100623.88
2023-04-30T16:35:25.094Z,100627.56
2023-04-30T16:37:54.982Z,100626.17
2023-04-30T16:40:22.713Z,100630.09
2023-04-30T16:42:50.286Z,100629.57
2023-04-30T16:45:18.291Z,100633.14
2023-04-30T16:47:46.169Z,100632.88
2023-04-30T16:50:14.206Z,100633.43
2023-04-30T16:52:42.007Z,100632.95
2023-04-30T16:55:10.516Z,100635.23
2023-04-30T16:57:38.142Z,100639.68
2023-04-30T17:00:14.240Z,100639.72
2023-04-30T17:02:45.416Z,100639.62
2023-04-30T17:05:13.378Z,100638.48
2023-04-30T17:07:43.325Z,100638.83
2023-04-30T17:10:12.020Z,100644.34
2023-04-30T17:12:40.164Z,100644.81
2023-04-30T17:15:08.326Z,100644.70
2023-04-30T17:17:36.090Z,100648.64
2023-04-30T17:20:04.109Z,100648.36
2023-04-30T17:22:57.230Z,100652.81
2023-04-30T17:25:25.489Z,100655.49
2023-04-30T17:27:53.176Z,100657.86
2023-04-30T17:30:21.147Z,100661.18
2023-04-30T17:32:48.902Z,100657.33
2023-04-30T17:35:17.098Z,100661.39
2023-04-30T17:38:58.012Z,100661.00
2023-04-30T17:41:26.381Z,100664.38
2023-04-30T17:43:54.090Z,100668.79
2023-04-30T17:46:22.467Z,100665.55
2023-04-30T17:48:50.170Z,100672.81
2023-04-30T17:51:18.446Z,100678.02
2023-04-30T17:53:46.298Z,100681.27
2023-04-30T17:56:15.100Z,100680.16
2023-04-30T17:58:42.940Z,100682.09
2023-04-30T18:01:10.603Z,100683.38
2023-04-30T18:03:38.419Z,100681.14
2023-04-30T18:06:06.406Z,100684.61
2023-04-30T18:08:34.113Z,100689.06
2023-04-30T18:11:03.526Z,100686.64
2023-04-30T18:13:31.658Z,100689.75
2023-04-30T18:15:59.442Z,100689.59
2023-04-30T18:18:27.170Z,100693.32
2023-04-30T18:20:55.758Z,100694.23
2023-04-30T18:23:23.410Z,100696.71
2023-04-30T18:25:51.091Z,100697.63
2023-04-30T18:28:18.896Z,100703.90
2023-04-30T18:30:46.875Z,100706.23
2023-04-30T18:33:14.789Z,100704.98
2023-04-30T18:36:08.566Z,100706.45
2023-04-30T18:38:38.780Z,100706.09
2023-04-30T18:41:07.387Z,100710.46
2023-04-30T18:43:37.563Z,100713.24
2023-04-30T18:46:06.022Z,100711.66
2023-04-30T18:48:34.208Z,100713.55
2023-04-30T18:51:01.881Z,100714.27
2023-04-30T18:53:29.586Z,100715.95
2023-04-30T18:55:58.058Z,100712.76
2023-04-30T18:58:25.772Z,100718.70
2023-04-30T19:00:57.942Z,100717.13
2023-04-30T19:03:25.998Z,100719.73
2023-04-30T19:05:56.715Z,100722.10
2023-04-30T19:08:24.476Z,100726.20
2023-04-30T19:10:53.271Z,100725.32
2023-04-30T19:13:21.517Z,100730.15
2023-04-30T19:15:49.383Z,100733.42
2023-04-30T19:18:20.262Z,100740.74
2023-04-30T19:21:00.239Z,100739.52
2023-04-30T19:23:32.547Z,100739.58
2023-04-30T19:26:00.402Z,100736.87
2023-04-30T19:28:28.180Z,100737.93
2023-04-30T19:30:58.475Z,100739.65
2023-04-30T19:33:26.322Z,100739.13
2023-04-30T19:35:55.145Z,100740.66
2023-04-30T19:38:23.776Z,100743.70
2023-04-30T19:40:53.167Z,100746.30
2023-04-30T19:43:22.651Z,100744.58
2023-04-30T19:45:55.404Z,100744.21
2023-04-30T19:48:24.621Z,100742.62
2023-04-30T19:50:53.693Z,100748.70
2023-04-30T19:53:22.840Z,100750.33
2023-04-30T19:55:51.837Z,100749.04
2023-04-30T19:58:20.267Z,100748.78
2023-04-30T20:01:09.206Z,100752.67
2023-04-30T20:03:37.149Z,100744.05
2023-04-30T20:06:05.941Z,100741.67
2023-04-30T20:08:33.712Z,100743.38
2023-04-30T20:11:03.293Z,100743.88
2023-04-30T20:13:31.620Z,100744.48
2023-04-30T20:15:59.360Z,100744.03
2023-04-30T20:18:27.155Z,100746.09
2023-04-30T20:20:57.828Z,100751.77
2023-04-30T20:23:25.490Z,100750.80
2023-04-30T20:25:55.036Z,100753.39
2023-04-30T20:28:23.426Z,100753.45
2023-04-30T20:30:51.547Z,100753.80
2023-04-30T20:33:19.429Z,100755.55
2023-04-30T20:35:47.783Z,100760.61
2023-04-30T20:38:19.534Z,100756.80
2023-04-30T20:40:47.801Z,100762.48
2023-04-30T20:43:16.366Z,100761.52
2023-04-30T20:45:58.919Z,100758.52
2023-04-30T20:48:27.082Z,100759.90
2023-04-30T20:50:57.632Z,100760.88
2023-04-30T20:53:25.354Z,100759.83
2023-04-30T20:55:58.293Z,100759.70
2023-04-30T20:58:27.524Z,100758.27
2023-04-30T21:00:55.338Z,100757.64
2023-04-30T21:03:23.406Z,100760.08
2023-04-30T21:05:51.628Z,100763.23
2023-04-30T21:08:19.286Z,100764.44
2023-04-30T21:10:47.030Z,100772.23
2023-04-30T21:13:15.008Z,100773.64
2023-04-30T21:15:43.363Z,100776.48
2023-04-30T21:18:11.298Z,100778.33
2023-04-30T21:20:38.953Z,100786.17
2023-04-30T21:23:06.566Z,100789.65
2023-04-30T21:25:36.935Z,100794.56
2023-04-30T21:28:04.571Z,100798.02
2023-04-30T21:30:32.293Z,100799.51
2023-04-30T21:33:00.108Z,100803.80
2023-04-30T21:35:30.378Z,100810.17
2023-04-30T21:37:58.095Z,100809.27
2023-04-30T21:40:25.835Z,100814.47
2023-04-30T21:42:53.437Z,100817.36
2023-04-30T21:45:21.366Z,100818.27
2023-04-30T21:47:49.125Z,100819.30
2023-04-30T21:50:17.034Z,100823.27
2023-04-30T21:52:44.736Z,100823.84
2023-04-30T21:55:12.521Z,100828.23
2023-04-30T21:57:40.174Z,100827.77
2023-04-30T22:00:18.920Z,100831.17
2023-04-30T22:02:48.851Z,100835.47
2023-04-30T22:05:21.242Z,100834.09
2023-04-30T22:07:49.078Z,100836.34
2023-04-30T22:10:16.711Z,100840.93
2023-04-30T22:12:47.384Z,100844.10
2023-04-30T22:15:15.579Z,100845.20
2023-04-30T22:17:43.366Z,100845.20
2023-04-30T22:20:11.585Z,100849.16
2023-04-30T22:22:39.503Z,100855.02
2023-04-30T22:25:07.633Z,100859.43
2023-04-30T22:27:35.341Z,100862.11
2023-04-30T22:30:03.952Z,100864.54
2023-04-30T22:32:32.278Z,100867.98
2023-04-30T22:35:00.048Z,100867.32
2023-04-30T22:37:27.677Z,100871.33
2023-04-30T22:39:55.685Z,100871.55
2023-04-30T22:42:23.685Z,100873.89
2023-04-30T22:44:52.092Z,100876.38
2023-04-30T22:47:19.794Z,100879.10
2023-04-30T22:49:47.736Z,100882.43
2023-04-30T22:52:15.570Z,100877.91
2023-04-30T22:54:43.368Z,100881.04
2023-04-30T22:57:11.175Z,100882.95
2023-04-30T23:00:55.189Z,100885.05
2023-04-30T23:03:22.903Z,100885.09
2023-04-30T23:05:51.612Z,100889.18
2023-04-30T23:08:19.526Z,100891.70
2023-04-30T23:10:47.870Z,100890.90
2023-04-30T23:13:17.367Z,100894.21
2023-04-30T23:15:45.400Z,100896.49
2023-04-30T23:18:13.218Z,100898.99
2023-04-30T23:20:40.929Z,100895.48
2023-04-30T23:23:08.529Z,100898.26
2023-04-30T23:25:36.860Z,100897.33
2023-04-30T23:28:05.042Z,100895.40
2023-04-30T23:30:32.825Z,100895.33
2023-04-30T23:33:00.903Z,100895.89
2023-04-30T23:35:28.530Z,100894.11
2023-04-30T23:37:56.271Z,100893.75
2023-04-30T23:40:24.024Z,100895.12
2023-04-30T23:42:51.644Z,100895.61
2023-04-30T23:46:09.388Z,100900.39
2023-04-30T23:48:37.445Z,100900.90
2023-04-30T23:51:08.305Z,100905.20
2023-04-30T23:53:36.149Z,100907.08
2023-04-30T23:56:03.906Z,100907.91
2023-04-30T23:58:31.650Z,100910.59
